Time;durP1;ratioP1;P1;durP2;ratioP2;P2;SDS_P1;SDS_P2;PMS_P1;PMS_P2;Temp;Humidity;BMP_temperature;BMP_pressure;BME280_temperature;BME280_humidity;BME280_pressure;Samples;Min_cycle;Max_cycle;Signal;HPM_P1;HPM_P2
2021/09/06 00:00:00;;;;;;;9.60;3.55;;;;;;;10.52;63.18;101602.08;1720317;80;21048;-61
2021/09/06 00:02:27;;;;;;;7.92;4.00;;;;;;;10.48;63.12;101607.17;1745809;80;21066;-62
2021/09/06 00:04:53;;;;;;;8.73;3.42;;;;;;;10.43;62.93;101607.44;1748882;80;21051;-61
2021/09/06 00:07:21;;;;;;;7.08;3.83;;;;;;;10.38;62.92;101609.50;1757108;79;21534;-61
2021/09/06 00:09:53;;;;;;;7.03;3.87;;;;;;;10.35;62.94;101609.67;1765393;79;21027;-61
2021/09/06 00:12:21;;;;;;;8.50;3.55;;;;;;;10.29;62.96;101612.18;1762328;79;21526;-61
2021/09/06 00:14:49;;;;;;;7.03;3.83;;;;;;;10.26;63.22;101618.09;1757876;79;21561;-61
2021/09/06 00:17:16;;;;;;;7.50;3.62;;;;;;;10.23;63.34;101616.48;1749118;79;21078;-61
2021/09/06 00:19:42;;;;;;;8.53;3.65;;;;;;;10.16;63.40;101621.25;1748941;79;21072;-61
2021/09/06 00:22:10;;;;;;;6.92;3.80;;;;;;;10.11;63.53;101615.41;1761854;79;21365;-61
2021/09/06 00:24:36;;;;;;;7.35;3.85;;;;;;;10.07;63.67;101611.28;1747899;80;21035;-61
2021/09/06 00:27:04;;;;;;;7.10;3.30;;;;;;;10.12;63.63;101614.94;1746797;80;21095;-62
2021/09/06 00:29:33;;;;;;;10.75;3.27;;;;;;;10.19;64.35;101618.92;1757589;79;21114;-62
2021/09/06 00:32:03;;;;;;;7.03;3.77;;;;;;;10.18;64.55;101618.05;1756693;79;22321;-62
2021/09/06 00:34:30;;;;;;;6.05;3.20;;;;;;;10.15;64.37;101618.23;1760641;79;21079;-62
2021/09/06 00:36:56;;;;;;;7.33;3.77;;;;;;;10.08;64.32;101614.75;1762842;79;21012;-62
2021/09/06 00:39:24;;;;;;;7.65;4.28;;;;;;;10.02;64.41;101612.02;1758712;80;20993;-62
2021/09/06 00:41:50;;;;;;;7.37;3.75;;;;;;;9.95;64.65;101611.97;1765561;79;21500;-61
2021/09/06 00:44:17;;;;;;;9.45;4.12;;;;;;;9.90;64.80;101615.34;1758353;79;21159;-62
2021/09/06 00:46:47;;;;;;;9.38;4.28;;;;;;;9.84;64.72;101621.80;1759545;79;21043;-62
2021/09/06 00:49:16;;;;;;;10.80;4.20;;;;;;;9.76;64.72;101615.66;1745636;80;21648;-61
2021/09/06 00:51:42;;;;;;;7.83;3.83;;;;;;;9.71;64.66;101615.55;1764329;79;21067;-62
2021/09/06 00:54:09;;;;;;;7.95;3.72;;;;;;;9.64;64.44;101614.58;1758501;79;21095;-62
2021/09/06 00:56:36;;;;;;;7.70;3.33;;;;;;;9.59;64.46;101610.52;1760226;79;21113;-61
2021/09/06 00:59:04;;;;;;;6.00;3.12;;;;;;;9.59;64.57;101612.67;1755525;79;21082;-62
2021/09/06 01:01:31;;;;;;;7.30;3.62;;;;;;;9.65;64.42;101616.28;1758468;79;21534;-61
2021/09/06 01:03:59;;;;;;;9.65;3.72;;;;;;;9.69;64.12;101615.63;1754032;79;21075;-61
2021/09/06 01:06:27;;;;;;;7.30;4.08;;;;;;;9.72;63.95;101617.26;1746737;80;21684;-61
2021/09/06 01:08:59;;;;;;;8.53;3.62;;;;;;;9.70;63.89;101616.03;1755573;79;21133;-61
2021/09/06 01:11:34;;;;;;;9.55;5.03;;;;;;;9.70;63.80;101616.03;1742108;79;21000;-62
2021/09/06 01:14:20;;;;;;;7.47;3.85;;;;;;;9.67;63.88;101619.66;1761523;79;21031;-61
2021/09/06 01:16:47;;;;;;;7.35;4.35;;;;;;;9.62;63.80;101623.50;1762855;79;21032;-61
2021/09/06 01:19:13;;;;;;;8.93;4.37;;;;;;;9.53;63.90;101618.73;1756094;79;21131;-61
2021/09/06 01:21:40;;;;;;;10.45;4.42;;;;;;;9.46;63.95;101622.17;1760776;79;21117;-61
2021/09/06 01:24:23;;;;;;;9.48;4.75;;;;;;;9.42;63.74;101624.61;1760444;79;21042;-61
2021/09/06 01:26:50;;;;;;;7.72;3.98;;;;;;;9.30;63.63;101625.66;1764123;79;21063;-61
2021/09/06 01:29:18;;;;;;;9.15;4.55;;;;;;;9.21;63.85;101623.98;1760596;79;21064;-61
2021/09/06 01:31:45;;;;;;;7.70;3.58;;;;;;;9.13;64.13;101624.87;1746243;80;21656;-61
2021/09/06 01:34:12;;;;;;;7.80;3.85;;;;;;;9.10;64.28;101624.11;1761826;79;21034;-61
2021/09/06 01:36:38;;;;;;;7.37;4.25;;;;;;;9.16;64.16;101623.39;1764496;80;21020;-61
2021/09/06 01:39:05;;;;;;;9.93;4.67;;;;;;;9.20;64.08;101632.81;1760010;80;21593;-61
2021/09/06 01:41:33;;;;;;;7.10;4.33;;;;;;;9.22;64.05;101630.95;1747166;80;22449;-61
2021/09/06 01:44:00;;;;;;;10.15;4.80;;;;;;;9.20;64.00;101632.34;1763426;79;21098;-61
2021/09/06 01:46:31;;;;;;;8.08;4.75;;;;;;;9.19;64.01;101628.01;1761453;79;22864;-61
2021/09/06 01:48:58;;;;;;;10.82;5.67;;;;;;;9.18;64.00;101629.41;1766922;79;21035;-61
2021/09/06 01:51:25;;;;;;;9.23;4.47;;;;;;;9.17;64.06;101627.72;1762937;79;21059;-61
2021/09/06 01:53:53;;;;;;;7.30;3.83;;;;;;;9.13;64.00;101628.80;1756586;79;21107;-61
2021/09/06 01:56:20;;;;;;;7.70;4.42;;;;;;;9.07;64.11;101625.58;1758859;79;21020;-61
2021/09/06 01:58:48;;;;;;;9.08;4.25;;;;;;;9.04;64.28;101631.47;1753492;79;22096;-61
2021/09/06 02:01:14;;;;;;;8.08;4.45;;;;;;;8.99;64.60;101622.99;1759581;80;21134;-61
2021/09/06 02:03:40;;;;;;;7.37;4.05;;;;;;;8.95;64.64;101635.44;1745929;79;21071;-61
2021/09/06 02:06:09;;;;;;;9.98;4.45;;;;;;;8.95;64.56;101624.94;1744924;79;21051;-61
2021/09/06 02:08:44;;;;;;;9.03;4.08;;;;;;;9.00;64.35;101624.70;1749443;79;21644;-61
2021/09/06 02:11:11;;;;;;;7.70;4.42;;;;;;;9.06;64.39;101624.34;1762402;79;21113;-61
2021/09/06 02:13:38;;;;;;;8.05;4.75;;;;;;;9.11;64.46;101628.44;1759827;80;21451;-61
2021/09/06 02:16:05;;;;;;;8.78;4.20;;;;;;;9.13;64.49;101630.12;1746539;79;21535;-61
2021/09/06 02:18:34;;;;;;;8.85;4.47;;;;;;;9.14;64.41;101633.98;1762233;79;21023;-61
2021/09/06 02:21:02;;;;;;;7.70;4.08;;;;;;;9.13;64.33;101635.37;1751052;79;21051;-61
2021/09/06 02:23:29;;;;;;;10.30;5.05;;;;;;;9.09;64.38;101634.25;1746600;80;21720;-61
2021/09/06 02:25:57;;;;;;;9.03;4.75;;;;;;;9.06;64.41;101633.54;1759942;80;21489;-61
2021/09/06 02:28:24;;;;;;;7.08;4.10;;;;;;;9.01;64.23;101636.44;1741911;80;21058;-61
2021/09/06 02:30:52;;;;;;;8.30;4.50;;;;;;;8.99;63.95;101643.52;1744165;79;21062;-61
2021/09/06 02:33:20;;;;;;;8.83;4.37;;;;;;;8.92;63.82;101639.53;1755914;79;21079;-61
2021/09/06 02:36:06;;;;;;;;;;;;;;;8.87;63.89;101641.55;1703222;82;21482;-61
2021/09/06 02:38:34;;;;;;;7.40;4.33;;;;;;;8.82;64.01;101639.64;1690412;83;20527;-61
2021/09/06 02:41:02;;;;;;;7.08;4.05;;;;;;;8.69;64.42;101642.91;1746660;80;21577;-61
2021/09/06 02:43:30;;;;;;;7.58;3.60;;;;;;;8.70;64.84;101645.91;1758723;79;21041;-60
2021/09/06 02:45:58;;;;;;;5.78;3.22;;;;;;;8.79;64.83;101646.36;1764608;79;21052;-61
2021/09/06 02:48:25;;;;;;;6.92;3.72;;;;;;;8.86;65.04;101655.59;1758435;80;21086;-61
2021/09/06 02:50:53;;;;;;;7.72;3.70;;;;;;;8.94;65.00;101653.42;1755542;79;21098;-61
2021/09/06 02:53:20;;;;;;;7.60;3.80;;;;;;;9.01;64.83;101653.50;1742965;79;21513;-61
2021/09/06 02:55:47;;;;;;;9.00;4.10;;;;;;;9.02;64.82;101656.96;1758909;79;21098;-61
2021/09/06 02:58:14;;;;;;;6.50;3.47;;;;;;;9.04;64.86;101662.50;1750240;80;21561;-61
2021/09/06 03:00:42;;;;;;;8.33;3.65;;;;;;;9.06;64.56;101662.42;1733815;80;21905;-61
2021/09/06 03:03:08;;;;;;;6.90;3.72;;;;;;;9.02;64.36;101660.42;1766077;79;21576;-61
2021/09/06 03:05:36;;;;;;;6.42;3.47;;;;;;;9.00;64.34;101662.29;1761187;79;21462;-63
2021/09/06 03:08:03;;;;;;;9.35;4.20;;;;;;;8.96;64.46;101665.16;1762065;79;21070;-63
2021/09/06 03:10:31;;;;;;;7.33;3.85;;;;;;;8.95;64.48;101666.10;1764584;79;21057;-64
2021/09/06 03:12:58;;;;;;;7.72;3.72;;;;;;;8.90;64.49;101666.33;1735614;80;21168;-63
2021/09/06 03:15:25;;;;;;;7.25;3.42;;;;;;;8.84;64.62;101667.95;1762518;79;21074;-63
2021/09/06 03:17:53;;;;;;;8.20;4.10;;;;;;;8.80;64.73;101665.96;1768552;79;21171;-63
2021/09/06 03:20:23;;;;;;;7.70;4.30;;;;;;;8.83;64.89;101672.37;1762913;79;21042;-58
2021/09/06 03:22:51;;;;;;;8.68;4.17;;;;;;;8.91;64.87;101674.61;1770962;79;21101;-59
2021/09/06 03:25:23;;;;;;;8.00;4.15;;;;;;;8.98;64.88;101673.79;1761220;79;21148;-64
2021/09/06 03:27:51;;;;;;;8.60;4.37;;;;;;;9.01;64.82;101671.88;1753488;79;21620;-64
2021/09/06 03:30:18;;;;;;;10.30;4.90;;;;;;;9.00;64.92;101679.36;1766610;79;21097;-64
2021/09/06 03:32:47;;;;;;;8.20;4.70;;;;;;;9.00;64.76;101679.83;1757289;79;21679;-64
2021/09/06 03:35:14;;;;;;;9.83;4.62;;;;;;;8.99;64.34;101680.75;1765219;80;21089;-65
2021/09/06 03:37:46;;;;;;;8.73;4.97;;;;;;;8.97;64.07;101685.23;1764191;79;21137;-63
2021/09/06 03:40:18;;;;;;;8.58;4.25;;;;;;;8.90;64.06;101685.55;1764888;79;21066;-65
2021/09/06 03:42:45;;;;;;;9.10;5.15;;;;;;;8.84;64.17;101680.64;1756754;79;21038;-59
2021/09/06 03:45:13;;;;;;;7.95;4.95;;;;;;;8.80;64.36;101686.12;1762681;79;21147;-59
2021/09/06 03:47:41;;;;;;;9.60;4.97;;;;;;;8.78;64.61;101690.61;1784501;79;21117;-61
2021/09/06 03:50:09;;;;;;;9.53;4.62;;;;;;;8.74;64.85;101688.58;1782102;78;21050;-59
2021/09/06 03:52:36;;;;;;;10.45;4.20;;;;;;;8.77;65.17;101687.58;1755196;79;21597;-58
2021/09/06 03:55:07;;;;;;;8.60;4.33;;;;;;;8.89;65.35;101694.37;1753077;80;21105;-60
2021/09/06 03:57:33;;;;;;;8.33;4.25;;;;;;;9.00;65.43;101687.70;1763631;79;22151;-59
2021/09/06 04:00:01;;;;;;;10.13;4.87;;;;;;;9.08;65.42;101690.30;1782618;78;21126;-59
2021/09/06 04:02:30;;;;;;;8.58;4.55;;;;;;;9.14;65.42;101696.16;1764729;79;21952;-58
2021/09/06 04:04:59;;;;;;;8.25;4.60;;;;;;;9.17;65.25;101696.84;1762644;79;21004;-58
2021/09/06 04:07:27;;;;;;;9.80;4.92;;;;;;;9.18;65.04;101697.68;1767228;79;21055;-58
2021/09/06 04:09:55;;;;;;;10.85;5.17;;;;;;;9.18;64.99;101697.68;1762415;79;21051;-57
2021/09/06 04:12:21;;;;;;;7.60;4.53;;;;;;;9.19;64.96;101705.95;1736876;79;21098;-57
2021/09/06 04:14:48;;;;;;;10.32;5.83;;;;;;;9.17;64.63;101705.20;1748885;80;21059;-58
2021/09/06 04:17:15;;;;;;;10.05;5.15;;;;;;;9.14;64.66;101705.35;1765834;79;21062;-58
2021/09/06 04:19:45;;;;;;;8.73;5.05;;;;;;;9.10;64.85;101709.92;1759341;79;21101;-57
2021/09/06 04:22:11;;;;;;;9.25;4.90;;;;;;;9.11;64.90;101713.78;1757201;79;21055;-57
2021/09/06 04:24:40;;;;;;;10.60;4.65;;;;;;;9.12;64.71;101709.38;1765117;79;21058;-58
2021/09/06 04:27:06;;;;;;;11.28;5.22;;;;;;;9.21;64.71;101718.09;1767835;80;21169;-57
2021/09/06 04:29:34;;;;;;;10.30;4.37;;;;;;;9.35;64.60;101721.77;1772364;79;21094;-57
2021/09/06 04:32:01;;;;;;;9.48;4.58;;;;;;;9.42;64.43;101716.08;1766731;79;21075;-58
2021/09/06 04:34:30;;;;;;;10.82;5.17;;;;;;;9.51;64.53;101714.73;1760760;79;21160;-57
2021/09/06 04:36:56;;;;;;;7.20;4.17;;;;;;;9.57;64.50;101717.03;1755185;80;21122;-57
2021/09/06 04:39:23;;;;;;;10.63;4.72;;;;;;;9.61;64.48;101725.59;1760330;79;21159;-58
2021/09/06 04:41:50;;;;;;;11.15;5.10;;;;;;;9.62;64.45;101720.73;1742371;79;21146;-58
2021/09/06 04:44:17;;;;;;;11.55;5.62;;;;;;;9.60;64.42;101727.38;1764303;79;21094;-55
2021/09/06 04:46:46;;;;;;;11.03;5.12;;;;;;;9.61;64.42;101729.53;1743251;80;21565;-56
2021/09/06 04:49:14;;;;;;;9.25;5.03;;;;;;;9.59;64.45;101719.58;1764329;79;21104;-57
2021/09/06 04:51:40;;;;;;;8.70;4.65;;;;;;;9.60;64.37;101723.44;1768183;79;21190;-58
2021/09/06 04:54:09;;;;;;;9.28;4.65;;;;;;;9.60;64.07;101721.25;1746768;79;21066;-57
2021/09/06 04:56:36;;;;;;;8.75;4.65;;;;;;;9.57;63.97;101722.28;1759940;79;21102;-58
2021/09/06 04:59:05;;;;;;;10.78;4.95;;;;;;;9.61;64.00;101723.80;1763716;79;21137;-58
2021/09/06 05:01:32;;;;;;;8.55;3.92;;;;;;;9.69;63.82;101726.02;1768684;78;21102;-57
2021/09/06 05:03:59;;;;;;;9.05;4.47;;;;;;;9.79;63.95;101727.21;1765624;78;22295;-56
2021/09/06 05:06:26;;;;;;;10.00;5.22;;;;;;;9.86;64.04;101723.30;1773372;78;21054;-58
2021/09/06 05:08:52;;;;;;;13.05;5.03;;;;;;;9.90;64.00;101724.00;1770457;78;21485;-57
2021/09/06 05:11:21;;;;;;;9.10;5.30;;;;;;;9.91;63.46;101730.10;1775206;78;21122;-60
2021/09/06 05:13:47;;;;;;;8.80;5.05;;;;;;;9.89;63.25;101726.72;1765314;78;21066;-58
2021/09/06 05:16:14;;;;;;;8.45;5.00;;;;;;;9.86;63.34;101729.88;1765509;78;23361;-58
2021/09/06 05:18:44;;;;;;;8.03;4.60;;;;;;;9.84;63.46;101731.75;1772771;78;21114;-57
2021/09/06 05:21:10;;;;;;;8.18;4.83;;;;;;;9.83;63.41;101732.70;1752005;80;21054;-57
2021/09/06 05:23:37;;;;;;;10.18;5.45;;;;;;;9.85;63.50;101731.27;1749349;79;21557;-57
2021/09/06 05:26:03;;;;;;;8.40;5.33;;;;;;;9.86;63.48;101731.19;1772613;78;21157;-58
2021/09/06 05:28:48;;;;;;;9.58;5.22;;;;;;;9.89;63.48;101734.60;1768963;78;21211;-59
2021/09/06 05:31:14;;;;;;;9.88;5.00;;;;;;;9.95;63.67;101739.05;1773687;79;21141;-58
2021/09/06 05:33:42;;;;;;;8.88;4.72;;;;;;;10.10;63.67;101737.80;1769062;78;21038;-58
2021/09/06 05:36:13;;;;;;;9.43;4.62;;;;;;;10.26;63.70;101737.31;1776884;78;21529;-58
2021/09/06 05:38:40;;;;;;;9.43;5.10;;;;;;;10.40;63.45;101740.48;1771777;79;21042;-58
2021/09/06 05:41:25;;;;;;;8.48;5.78;;;;;;;10.52;63.34;101739.80;1760751;80;22555;-58
2021/09/06 05:43:53;;;;;;;8.43;4.80;;;;;;;10.68;62.99;101741.53;1773339;78;21133;-58
2021/09/06 05:46:20;;;;;;;13.15;5.67;;;;;;;10.75;62.86;101739.75;1749896;80;21052;-56
2021/09/06 05:48:47;;;;;;;8.90;4.50;;;;;;;10.88;62.97;101746.94;1751098;80;21467;-56
2021/09/06 05:51:14;;;;;;;9.48;4.90;;;;;;;11.02;62.75;101746.11;1771463;78;21106;-58
2021/09/06 05:53:42;;;;;;;8.93;4.45;;;;;;;11.17;62.55;101744.33;1766419;79;21150;-58
2021/09/06 05:56:09;;;;;;;11.33;5.25;;;;;;;11.30;61.96;101743.96;1766663;78;20993;-58
2021/09/06 05:58:36;;;;;;;7.85;4.75;;;;;;;11.43;61.77;101742.72;1769975;79;21516;-59
2021/09/06 06:01:03;;;;;;;9.48;5.12;;;;;;;11.56;61.29;101746.28;1755312;78;21121;-57
2021/09/06 06:03:31;;;;;;;8.78;4.58;;;;;;;11.66;60.78;101742.13;1766831;78;21049;-58
2021/09/06 06:05:58;;;;;;;8.58;4.35;;;;;;;11.75;60.39;101734.58;1760952;79;21104;-57
2021/09/06 06:08:25;;;;;;;8.65;4.42;;;;;;;11.90;60.42;101745.47;1744024;80;21601;-57
2021/09/06 06:10:52;;;;;;;9.28;5.15;;;;;;;12.12;60.03;101744.12;1766470;79;21047;-59
2021/09/06 06:13:19;;;;;;;7.40;4.33;;;;;;;12.34;59.67;101739.59;1782575;78;21016;-57
2021/09/06 06:15:47;;;;;;;8.85;4.10;;;;;;;12.54;59.18;101744.43;1758010;79;20980;-58
2021/09/06 06:18:15;;;;;;;8.98;4.55;;;;;;;12.69;58.53;101744.33;1756477;79;21103;-56
2021/09/06 06:20:41;;;;;;;7.53;3.90;;;;;;;12.80;57.48;101749.27;1723891;80;21645;-58
2021/09/06 06:23:13;;;;;;;9.78;3.95;;;;;;;12.88;57.07;101750.08;1759805;79;20984;-58
2021/09/06 06:25:41;;;;;;;8.68;3.77;;;;;;;12.96;56.61;101745.57;1752423;80;21070;-58
2021/09/06 06:28:10;;;;;;;8.98;3.92;;;;;;;13.03;56.19;101748.19;1737889;79;21090;-58
2021/09/06 06:30:36;;;;;;;6.78;2.90;;;;;;;13.11;56.24;101752.47;1756320;79;21837;-58
2021/09/06 06:33:05;;;;;;;6.15;3.12;;;;;;;13.18;55.79;101752.89;1758945;79;21137;-58
2021/09/06 06:35:38;;;;;;;7.83;3.50;;;;;;;13.27;55.95;101750.08;1759569;79;21000;-58
2021/09/06 06:38:07;;;;;;;5.70;2.45;;;;;;;13.36;55.50;101750.32;1748911;79;21593;-57
2021/09/06 06:40:35;;;;;;;6.92;2.75;;;;;;;13.45;54.88;101751.92;1760746;80;21542;-55
2021/09/06 06:43:04;;;;;;;6.92;2.33;;;;;;;13.50;54.19;101748.47;1757515;79;21265;-56
2021/09/06 06:45:31;;;;;;;6.65;2.40;;;;;;;13.54;54.05;101746.84;1756418;79;21036;-65
2021/09/06 06:47:58;;;;;;;6.85;2.62;;;;;;;13.61;54.01;101749.05;1741157;80;21649;-64
2021/09/06 06:50:26;;;;;;;7.42;2.83;;;;;;;13.66;53.97;101738.50;1758181;79;22454;-57
2021/09/06 06:52:55;;;;;;;4.28;1.95;;;;;;;13.75;54.28;101748.89;1759467;79;21461;-58
2021/09/06 06:55:23;;;;;;;7.37;2.40;;;;;;;13.83;53.44;101742.58;1753158;79;21109;-58
2021/09/06 06:57:49;;;;;;;6.87;2.10;;;;;;;13.92;52.38;101749.03;1753712;79;21106;-58
2021/09/06 07:00:16;;;;;;;7.28;2.10;;;;;;;13.99;51.98;101746.30;1754237;79;21083;-56
2021/09/06 07:02:46;;;;;;;5.70;1.95;;;;;;;14.06;52.13;101742.72;1756491;79;21071;-57
2021/09/06 07:05:13;;;;;;;5.35;2.27;;;;;;;14.16;51.96;101738.93;1742917;80;22324;-57
2021/09/06 07:07:41;;;;;;;6.35;2.42;;;;;;;14.26;51.08;101742.09;1760360;79;21247;-56
2021/09/06 07:10:10;;;;;;;12.40;2.22;;;;;;;14.31;50.69;101743.92;1753913;79;21538;-56
2021/09/06 07:12:38;;;;;;;15.28;3.33;;;;;;;14.39;50.07;101744.69;1759352;79;21058;-58
2021/09/06 07:15:06;;;;;;;6.12;1.80;;;;;;;14.48;49.64;101747.95;1757111;79;21039;-57
2021/09/06 07:17:35;;;;;;;5.20;2.25;;;;;;;14.57;48.95;101753.52;1757505;79;21519;-57
2021/09/06 07:20:03;;;;;;;6.55;2.50;;;;;;;14.64;49.03;101743.72;1760502;79;21095;-57
2021/09/06 07:22:32;;;;;;;12.73;2.75;;;;;;;14.71;49.29;101749.40;1759125;79;21071;-57
2021/09/06 07:24:59;;;;;;;6.17;2.22;;;;;;;14.73;49.63;101753.26;1762019;79;21102;-58
2021/09/06 07:27:25;;;;;;;6.47;2.58;;;;;;;14.76;49.59;101745.05;1764300;79;21542;-58
2021/09/06 07:29:52;;;;;;;5.50;2.33;;;;;;;14.82;49.30;101752.05;1746425;79;21075;-58
2021/09/06 07:32:19;;;;;;;6.92;2.12;;;;;;;14.85;48.74;101757.61;1762796;79;23371;-58
2021/09/06 07:34:47;;;;;;;4.90;1.75;;;;;;;14.83;48.81;101752.43;1757894;79;21527;-56
2021/09/06 07:37:15;;;;;;;6.37;1.80;;;;;;;14.83;47.36;101763.03;1763501;79;21513;-58
2021/09/06 07:39:46;;;;;;;4.33;1.52;;;;;;;14.81;46.77;101760.98;1769296;79;21065;-57
2021/09/06 07:42:10;;;;;;;4.70;1.35;;;;;;;14.77;45.57;101755.53;1766690;79;22495;-56
2021/09/06 07:44:37;;;;;;;3.90;0.98;;;;;;;14.77;45.71;101752.89;1758720;79;21123;-56
2021/09/06 07:47:03;;;;;;;10.78;2.05;;;;;;;14.80;44.97;101751.82;1755829;80;21044;-57
2021/09/06 07:49:30;;;;;;;5.17;1.62;;;;;;;14.88;45.97;101760.03;1761219;79;21166;-57
2021/09/06 07:51:58;;;;;;;4.67;1.55;;;;;;;14.98;46.93;101754.39;1764967;79;21066;-56
2021/09/06 07:54:25;;;;;;;6.25;1.75;;;;;;;15.05;46.87;101762.22;1768309;79;20999;-57
2021/09/06 07:56:54;;;;;;;5.40;1.60;;;;;;;15.07;46.95;101757.30;1768305;79;21169;-57
2021/09/06 07:59:22;;;;;;;3.58;1.30;;;;;;;15.09;46.32;101754.88;1768524;79;21121;-56
2021/09/06 08:01:49;;;;;;;4.97;1.30;;;;;;;15.12;43.90;101753.31;1762547;79;21507;-56
2021/09/06 08:04:15;;;;;;;4.53;1.30;;;;;;;15.19;43.94;101756.33;1761371;79;21077;-56
2021/09/06 08:06:44;;;;;;;4.47;1.12;;;;;;;15.22;43.58;101756.09;1764236;79;21070;-57
2021/09/06 08:09:11;;;;;;;4.60;1.65;;;;;;;15.29;44.09;101755.14;1763928;79;21320;-57
2021/09/06 08:11:39;;;;;;;4.45;1.27;;;;;;;15.36;45.18;101753.69;1750570;79;21078;-57
2021/09/06 08:14:05;;;;;;;4.95;1.45;;;;;;;15.49;44.30;101760.20;1751495;79;21071;-56
2021/09/06 08:16:33;;;;;;;4.25;0.93;;;;;;;15.57;43.17;101753.32;1768048;79;21070;-57
2021/09/06 08:18:59;;;;;;;2.98;0.78;;;;;;;15.64;43.11;101760.80;1756691;79;21084;-56
2021/09/06 08:21:26;;;;;;;3.02;1.02;;;;;;;15.74;42.29;101757.28;1751750;79;21862;-64
2021/09/06 08:23:53;;;;;;;2.37;0.62;;;;;;;15.82;41.15;101755.84;1755943;79;21107;-64
2021/09/06 08:26:21;;;;;;;3.00;0.75;;;;;;;15.88;40.39;101755.36;1761282;79;21134;-64
2021/09/06 08:28:49;;;;;;;2.42;0.62;;;;;;;15.95;39.99;101748.58;1755567;79;21185;-66
2021/09/06 08:31:17;;;;;;;2.35;0.62;;;;;;;16.02;38.09;101750.25;1760030;79;21039;-63
2021/09/06 08:33:44;;;;;;;2.85;0.80;;;;;;;16.04;36.94;101741.20;1756774;79;21110;-65
2021/09/06 08:36:11;;;;;;;2.72;0.80;;;;;;;16.12;37.39;101748.06;1762632;79;21708;-64
2021/09/06 08:38:40;;;;;;;1.90;0.47;;;;;;;16.18;37.61;101751.18;1746274;80;21086;-67
2021/09/06 08:41:08;;;;;;;2.37;0.50;;;;;;;16.21;37.42;101745.13;1749141;80;21367;-68
2021/09/06 08:43:36;;;;;;;1.87;0.47;;;;;;;16.22;37.40;101745.96;1760467;79;21747;-65
2021/09/06 08:46:05;;;;;;;1.98;0.57;;;;;;;16.25;33.48;101751.02;1757848;79;21126;-65
2021/09/06 08:48:32;;;;;;;2.22;0.40;;;;;;;16.23;32.97;101747.66;1723321;79;21586;-63
2021/09/06 08:50:59;;;;;;;1.62;0.37;;;;;;;16.21;32.54;101737.66;1755743;79;21637;-61
2021/09/06 08:53:26;;;;;;;2.37;0.60;;;;;;;16.23;33.23;101737.87;1756948;79;21026;-64
2021/09/06 08:55:54;;;;;;;3.12;0.90;;;;;;;16.30;34.09;101743.02;1756910;79;21003;-66
2021/09/06 08:58:20;;;;;;;1.92;0.70;;;;;;;16.44;35.26;101739.24;1747198;80;21712;-64
2021/09/06 09:00:49;;;;;;;2.98;0.85;;;;;;;16.59;35.14;101738.91;1766481;79;21341;-63
2021/09/06 09:03:32;;;;;;;3.10;0.73;;;;;;;16.68;36.05;101742.14;1674028;82;21239;-64
2021/09/06 09:06:03;;;;;;;4.33;0.80;;;;;;;16.79;35.83;101742.05;1740758;78;21311;-65
2021/09/06 09:08:46;;;;;;;3.22;1.10;;;;;;;16.89;35.99;101744.34;1723655;78;21058;-65
2021/09/06 09:11:17;;;;;;;3.62;1.10;;;;;;;16.96;35.79;101745.95;1765970;78;21169;-65
2021/09/06 09:26:03;;;;;;;3.12;0.80;;;;;;;18.07;33.72;101747.41;1744396;80;22870;-67
2021/09/06 09:28:45;;;;;;;2.40;0.70;;;;;;;18.19;32.87;101745.83;1746634;79;21122;-66
2021/09/06 09:31:20;;;;;;;3.05;0.80;;;;;;;18.14;32.68;101744.53;1712960;81;22306;-68
2021/09/06 09:33:53;;;;;;;4.12;0.90;;;;;;;18.07;32.56;101743.42;1752781;79;21604;-67
2021/09/06 09:36:33;;;;;;;4.00;0.85;;;;;;;17.96;33.18;101745.73;1719641;80;21804;-68
2021/09/06 09:39:14;;;;;;;3.67;1.10;;;;;;;17.95;32.07;101753.36;1717897;79;21098;-67
2021/09/06 09:41:44;;;;;;;3.67;0.80;;;;;;;17.94;33.00;101747.70;1756249;80;21067;-68
2021/09/06 09:44:21;;;;;;;7.40;1.25;;;;;;;17.97;32.42;101740.27;1759246;79;21230;-67
2021/09/06 09:47:06;;;;;;;2.72;0.85;;;;;;;17.95;32.61;101740.88;1752662;79;21341;-71
2021/09/06 09:49:36;;;;;;;3.92;0.70;;;;;;;17.93;31.48;101752.66;1756734;79;21046;-67
2021/09/06 09:52:06;;;;;;;2.77;0.90;;;;;;;17.88;31.43;101747.73;1753227;79;21144;-67
2021/09/06 09:54:33;;;;;;;2.90;0.90;;;;;;;17.87;32.56;101747.88;1732735;79;22186;-69
2021/09/06 09:57:01;;;;;;;3.60;0.78;;;;;;;17.89;32.21;101745.44;1723232;81;21054;-67
2021/09/06 09:59:29;;;;;;;3.17;0.85;;;;;;;17.83;32.64;101749.94;1695618;82;22160;-71
2021/09/06 10:02:16;;;;;;;2.35;0.85;;;;;;;17.74;32.50;101747.62;1667756;83;21130;-67
2021/09/06 10:04:53;;;;;;;4.47;0.88;;;;;;;17.72;32.63;101746.05;1703983;82;20984;-67
2021/09/06 10:07:23;;;;;;;3.40;0.88;;;;;;;17.73;32.05;101739.27;1702456;82;20940;-67
2021/09/06 10:09:51;;;;;;;4.25;0.95;;;;;;;17.71;31.56;101740.39;1698732;82;21171;-67
2021/09/06 10:12:29;;;;;;;2.67;0.62;;;;;;;17.72;32.48;101738.94;1688711;82;22203;-67
2021/09/06 10:15:01;;;;;;;1.67;0.40;;;;;;;17.78;31.89;101740.20;1720269;81;20987;-67
2021/09/06 10:17:52;;;;;;;2.55;0.75;;;;;;;17.82;32.08;101740.30;1724629;81;20880;-69
2021/09/06 10:20:17;;;;;;;3.40;0.82;;;;;;;17.87;32.32;101744.74;1689635;82;21121;-67
2021/09/06 10:22:46;;;;;;;3.37;0.72;;;;;;;17.91;31.90;101750.13;1696349;81;21066;-67
2021/09/06 10:25:19;;;;;;;3.20;1.02;;;;;;;17.93;32.83;101739.34;1719490;81;21097;-68
2021/09/06 10:27:57;;;;;;;3.30;1.12;;;;;;;17.91;32.77;101747.47;1727619;81;21094;-68
2021/09/06 10:30:41;;;;;;;4.00;1.20;;;;;;;17.84;33.05;101742.32;1720048;81;21070;-68
2021/09/06 10:33:29;;;;;;;3.25;1.12;;;;;;;17.80;33.00;101744.42;1705132;82;20936;-66
2021/09/06 10:36:12;;;;;;;2.25;0.70;;;;;;;17.74;33.62;101748.12;1679635;82;21819;-67
2021/09/06 10:38:53;;;;;;;3.22;0.95;;;;;;;17.71;32.86;101751.05;1706243;82;20984;-69
2021/09/06 10:41:23;;;;;;;3.12;0.82;;;;;;;17.61;31.97;101747.02;1681310;83;21106;-66
2021/09/06 10:43:57;;;;;;;3.35;0.90;;;;;;;17.59;32.96;101747.16;1702606;82;21162;-68
2021/09/06 10:46:26;;;;;;;4.67;0.82;;;;;;;17.66;32.76;101747.95;1681116;82;21095;-70
2021/09/06 10:48:54;;;;;;;3.52;0.60;;;;;;;17.77;33.09;101747.34;1705460;82;21916;-70
2021/09/06 10:51:26;;;;;;;3.00;0.88;;;;;;;17.92;32.39;101737.19;1697296;82;21283;-66
2021/09/06 10:53:59;;;;;;;4.10;0.72;;;;;;;18.03;31.81;101734.87;1743459;81;21038;-68
2021/09/06 10:56:28;;;;;;;2.20;0.70;;;;;;;18.07;30.91;101741.63;1692895;81;21183;-68
2021/09/06 10:58:55;;;;;;;2.65;0.72;;;;;;;18.00;30.45;101741.33;1721601;81;21578;-65
2021/09/06 11:01:21;;;;;;;2.37;0.70;;;;;;;18.01;31.13;101742.16;1722053;81;21173;-72
2021/09/06 11:03:52;;;;;;;3.90;1.00;;;;;;;18.08;30.81;101745.95;1719377;81;21079;-68
2021/09/06 11:06:27;;;;;;;3.40;1.00;;;;;;;18.13;30.92;101743.70;1694953;82;21053;-69
2021/09/06 11:08:56;;;;;;;2.37;0.68;;;;;;;18.15;30.03;101739.58;1654690;83;21071;-67
2021/09/06 11:11:31;;;;;;;5.42;1.17;;;;;;;18.11;30.34;101734.19;1683798;82;21039;-66
2021/09/06 11:13:58;;;;;;;2.67;0.60;;;;;;;18.08;30.18;101742.45;1723071;82;21148;-65
2021/09/06 11:16:38;;;;;;;2.10;0.57;;;;;;;17.99;29.59;101734.31;1708629;82;21070;-66
2021/09/06 11:19:13;;;;;;;2.58;0.80;;;;;;;17.92;29.93;101736.32;1721398;81;21038;-66
2021/09/06 11:21:42;;;;;;;4.20;1.10;;;;;;;17.87;30.23;101739.42;1695906;83;21082;-68
2021/09/06 11:24:10;;;;;;;3.20;0.82;;;;;;;17.93;31.09;101729.53;1716324;81;21277;-69
2021/09/06 11:26:37;;;;;;;2.83;0.78;;;;;;;18.01;30.38;101731.02;1717136;81;21890;-66
2021/09/06 11:29:05;;;;;;;3.67;0.90;;;;;;;18.08;30.00;101731.30;1682537;84;22192;-67
2021/09/06 11:31:34;;;;;;;3.30;0.68;;;;;;;18.20;30.78;101729.34;1707907;82;21084;-68
2021/09/06 11:34:05;;;;;;;3.80;0.95;;;;;;;18.31;30.99;101719.88;1729225;81;21105;-68
2021/09/06 11:36:32;;;;;;;3.12;1.10;;;;;;;18.42;29.92;101718.05;1725526;81;21046;-67
2021/09/06 11:38:59;;;;;;;3.62;1.17;;;;;;;18.47;29.94;101719.80;1707954;81;21931;-66
2021/09/06 11:41:26;;;;;;;4.12;1.02;;;;;;;18.57;30.20;101716.12;1739209;81;20990;-66
2021/09/06 11:43:53;;;;;;;4.03;1.00;;;;;;;18.70;29.87;101711.83;1711769;81;20897;-67
2021/09/06 11:46:20;;;;;;;4.00;1.17;;;;;;;18.80;31.22;101718.48;1724997;81;21786;-67
2021/09/06 11:48:48;;;;;;;4.17;1.17;;;;;;;18.93;32.26;101720.37;1732585;81;20950;-69